Date,TemperatureHighF,TemperatureAvgF,TemperatureLowF,DewpointHighF,DewpointAvgF,DewpointLowF,HumidityHigh,HumidityAvg,HumidityLow,PressureMaxIn,PressureMinIn,WindSpeedMaxMPH,WindSpeedAvgMPH,GustSpeedMaxMPH,PrecipitationSumIn
2014-1-1,24,18,14,-100,-100,-100,0,0,100,0.00,0.00,20,11,24,0.00
2014-1-2,41,24,12,-100,-100,-100,0,0,100,0.00,0.00,15,9,17,0.00
2014-1-3,49,32,13,-100,-100,-100,0,0,100,0.00,0.00,23,14,27,0.00
2014-1-4,42,28,16,-100,-100,-100,0,0,100,0.00,0.00,25,16,30,0.00
2014-1-5,16,8,-6,-100,-100,-100,0,0,100,0.00,0.00,20,12,24,0.00
2014-1-6,21,6,-8,-100,-100,-100,0,0,100,0.00,0.00,18,10,21,0.00
2014-1-7,51,34,21,-100,-100,-100,0,0,100,0.00,0.00,18,10,22,0.00
2014-1-8,28,24,13,-100,-100,-100,0,0,100,0.00,0.00,16,9,20,0.00
2014-1-9,32,21,11,-100,-100,-100,0,0,100,0.00,0.00,18,6,21,0.00
2014-1-10,38,32,29,-100,-100,-100,0,0,100,0.00,0.00,21,8,24,0.09
2014-1-11,54,40,29,-100,-100,-100,0,0,100,0.00,0.00,20,14,23,0.05
2014-1-12,53,44,35,-100,-100,-100,0,0,100,0.00,0.00,28,13,34,0.00
2014-1-13,54,39,25,-100,-100,-100,0,0,100,0.00,0.00,23,14,27,0.00
2014-1-14,47,36,24,-100,-100,-100,0,0,100,0.00,0.00,33,18,39,0.00
2014-1-15,59,40,26,-100,-100,-100,0,0,100,0.00,0.00,23,11,28,0.00
2014-1-16,47,38,25,-100,-100,-100,0,0,100,0.00,0.00,38,22,49,0.00
2014-1-17,48,33,19,-100,-100,-100,0,0,100,0.00,0.00,17,10,21,0.00
2014-1-18,48,39,25,-100,-100,-100,0,0,100,0.00,0.00,39,18,47,0.00
2014-1-19,67,46,26,-100,-100,-100,0,0,100,0.00,0.00,20,12,25,0.00
2014-1-20,52,38,17,-100,-100,-100,0,0,100,0.00,0.00,29,14,36,0.00
2014-1-21,52,25,3,-100,-100,-100,0,0,100,0.00,0.00,18,9,22,0.00
2014-1-22,40,27,8,-100,-100,-100,0,0,100,0.00,0.00,25,12,30,0.00
2014-1-23,20,9,2,-100,-100,-100,0,0,100,0.00,0.00,19,10,22,0.00
2014-1-24,57,36,9,-100,-100,-100,0,0,100,0.00,0.00,29,17,36,0.00
2014-1-25,56,46,37,-100,-100,-100,0,0,100,0.00,0.00,21,13,25,0.00
2014-1-26,59,40,17,-100,-100,-100,0,0,100,0.00,0.00,40,18,57,0.00
2014-1-27,17,12,6,-100,-100,-100,0,0,100,0.00,0.00,20,6,28,0.00
2014-1-28,27,14,3,-100,-100,-100,0,0,100,0.00,0.00,21,10,24,0.00
2014-1-29,55,32,9,-100,-100,-100,0,0,100,0.00,0.00,24,14,29,0.00
2014-1-30,49,36,22,-100,-100,-100,0,0,100,0.00,0.00,29,14,35,0.00
2014-1-31,22,18,16,-100,-100,-100,0,0,100,0.00,0.00,14,2,18,0.00
2014-2-1,19,15,7,-100,-100,-100,0,0,100,0.00,0.00,19,4,22,0.00
2014-2-2,30,14,1,-100,-100,-100,0,0,100,0.00,0.00,14,7,16,0.00
2014-2-3,30,20,9,-100,-100,-100,0,0,100,0.00,0.00,18,3,20,0.00
2014-2-4,22,15,3,-100,-100,-100,0,0,100,0.00,0.00,25,10,32,0.00
2014-2-5,5,1,-5,-100,-100,-100,0,0,100,0.00,0.00,20,11,27,0.00
2014-2-6,5,1,-6,-100,-100,-100,0,0,100,0.00,0.00,15,6,17,0.00
2014-2-7,14,8,2,-100,-100,-100,0,0,100,0.00,0.00,15,11,17,0.00
2014-2-8,28,19,12,-100,-100,-100,0,0,100,0.00,0.00,16,7,18,0.00
2014-2-9,18,14,9,-100,-100,-100,0,0,100,0.00,0.00,16,9,19,0.00
2014-2-10,13,10,5,-100,-100,-100,0,0,100,0.00,0.00,11,5,13,0.00
2014-2-11,32,22,10,-100,-100,-100,0,0,100,0.00,0.00,21,14,24,0.11
2014-2-12,35,31,26,-100,-100,-100,0,0,100,0.00,0.00,21,13,25,0.05
2014-2-13,53,41,30,-100,-100,-100,0,0,100,0.00,0.00,24,13,30,0.00
2014-2-14,49,41,34,-100,-100,-100,0,0,100,0.00,0.00,23,16,27,0.00
2014-2-15,57,43,30,-100,-100,-100,0,0,100,0.00,0.00,23,13,28,0.00
2014-2-16,58,42,27,-100,-100,-100,0,0,100,0.00,0.00,26,14,30,0.00
2014-2-17,60,47,35,-100,-100,-100,0,0,100,0.00,0.00,37,18,46,0.00
2014-2-18,67,48,32,-100,-100,-100,0,0,100,0.00,0.00,33,15,41,0.00
2014-2-19,57,42,32,-100,-100,-100,0,0,100,0.00,0.00,24,12,27,0.00
2014-2-20,41,34,26,-100,-100,-100,0,0,100,0.00,0.00,33,19,41,0.00
2014-2-21,51,38,24,-100,-100,-100,0,0,100,0.00,0.00,23,12,28,0.00
2014-2-22,48,35,24,-100,-100,-100,0,0,100,0.00,0.00,17,10,21,0.00
2014-2-23,28,22,21,-100,-100,-100,0,0,100,0.00,0.00,17,5,21,0.00
2014-2-24,42,27,18,-100,-100,-100,0,0,100,0.00,0.00,19,7,27,0.00
2014-2-25,18,12,6,-100,-100,-100,0,0,100,0.00,0.00,20,11,24,0.00
2014-2-26,36,18,-2,-100,-100,-100,0,0,100,0.00,0.00,21,11,23,0.00
2014-2-27,43,28,16,-100,-100,-100,0,0,100,0.00,0.00,21,12,25,0.00
2014-2-28,41,30,19,-100,-100,-100,0,0,100,0.00,0.00,24,11,29,0.00
2014-3-1,19,10,1,-100,-100,-100,0,0,100,0.00,0.00,20,14,23,0.00
2014-3-2,6,4,-1,-100,-100,-100,0,0,100,0.00,0.00,16,8,19,0.00
2014-3-3,28,16,1,-100,-100,-100,0,0,100,0.00,0.00,22,14,26,0.00
2014-3-4,61,37,18,-100,-100,-100,0,0,100,0.00,0.00,18,7,22,0.00
2014-3-5,40,29,22,-100,-100,-100,0,0,100,0.00,0.00,21,10,27,0.13
2014-3-6,66,42,22,-100,-100,-100,0,0,100,0.00,40.00,23,16,26,0.05
2014-3-7,47,38,24,-100,-100,-100,0,0,100,0.00,0.00,27,17,35,0.00
2014-3-8,51,33,21,-100,-100,-100,0,0,100,0.00,0.00,18,8,23,0.00
2014-3-9,76,54,34,-100,-100,-100,0,0,100,0.00,0.00,21,15,26,0.00
2014-3-10,77,59,45,-100,-100,-100,0,0,100,0.00,0.00,16,10,19,0.00
2014-3-11,56,43,33,-100,-100,-100,0,0,100,0.00,0.00,38,19,53,0.26
2014-3-12,54,39,27,-100,-100,-100,0,0,100,0.00,40.00,21,13,25,0.24
2014-3-13,69,50,31,-100,-100,-100,0,0,100,0.00,0.00,22,12,25,0.00
2014-3-14,62,48,35,-100,-100,-100,0,0,100,0.00,0.00,17,12,26,0.00
2014-3-15,66,47,32,-100,-100,-100,0,0,100,0.00,0.00,29,17,37,0.00
2014-3-16,48,34,27,-100,-100,-100,0,0,100,0.00,0.00,22,11,30,0.00
2014-3-17,73,51,32,-100,-100,-100,0,0,100,0.00,0.00,25,17,32,0.00
2014-3-18,51,37,31,-100,-100,-100,0,0,100,0.00,0.00,28,17,34,0.00
2014-3-19,56,40,27,-100,-100,-100,0,0,100,0.00,0.00,20,12,26,0.00
2014-3-20,67,48,28,-100,-100,-100,0,0,100,0.00,0.00,19,10,23,0.00
2014-3-21,56,44,32,-100,-100,-100,0,0,100,0.00,0.00,22,16,27,0.00
2014-3-22,34,26,16,-100,-100,-100,0,0,100,0.00,0.00,22,11,28,0.00
2014-3-23,43,26,10,-100,-100,-100,0,0,100,0.00,0.00,21,8,24,0.00
2014-3-24,40,30,23,-100,-100,-100,0,0,100,0.00,0.00,19,10,24,0.00
2014-3-25,46,41,34,-100,-100,-100,0,0,100,0.00,0.00,18,15,21,0.00
2014-3-26,64,47,33,-100,-100,-100,0,0,100,0.00,0.00,32,24,61,0.00
2014-3-27,52,45,28,-100,-100,-100,0,0,100,0.00,0.00,29,18,37,0.00
2014-3-28,62,39,25,-100,-100,-100,0,0,100,0.00,0.00,27,10,32,1.04
2014-3-29,69,44,18,-100,-100,-100,0,0,100,0.00,0.00,24,13,29,0.48
2014-3-30,75,61,47,-100,-100,-100,0,0,100,0.00,0.00,28,16,36,0.00
2014-3-31,66,50,31,-100,-100,-100,0,0,100,0.00,0.00,43,24,50,0.00
2014-4-1,50,36,25,-100,-100,-100,0,0,100,0.00,0.00,18,10,23,0.00
2014-4-2,51,40,34,-100,-100,-100,0,0,100,0.00,0.00,20,12,24,0.00
2014-4-3,38,35,32,-100,-100,-100,0,0,100,0.00,0.00,21,14,26,1.34
2014-4-4,54,38,25,-100,-100,-100,0,0,100,0.00,0.00,17,10,21,1.20
2014-4-5,64,50,34,-100,-100,-100,0,0,100,0.00,0.00,30,18,35,0.00
2014-4-6,64,49,39,-100,-100,-100,0,0,100,0.00,0.00,19,11,23,1.18
2014-4-7,57,46,36,-100,-100,-100,0,0,100,0.00,0.00,30,14,35,1.94
2014-4-8,63,47,33,-100,-100,-100,0,0,100,0.00,0.00,15,9,21,0.18
2014-4-9,86,63,42,-100,-100,-100,0,0,100,0.00,0.00,25,16,33,0.00
2014-4-10,66,58,49,-100,-100,-100,0,0,100,0.00,0.00,26,11,33,0.00
2014-4-11,76,59,42,-100,-100,-100,0,0,100,0.00,0.00,21,14,24,0.00
2014-4-12,80,65,52,-100,-100,-100,0,0,100,0.00,0.00,20,12,24,0.00
2014-4-13,61,40,29,-100,-100,-100,0,0,100,0.00,0.00,32,21,40,4.67
2014-4-14,44,33,27,-100,-100,-100,0,0,100,0.00,0.00,25,17,32,1.92
2014-4-15,65,58,50,-100,-100,-100,0,0,100,0.00,0.00,25,18,29,0.00
2014-4-16,62,51,37,-100,-100,-100,0,0,100,0.00,0.00,31,19,178,0.00
2014-4-17,55,40,31,-100,-100,-100,0,0,100,0.00,0.00,15,8,18,0.00
2014-4-18,72,54,36,-100,-100,-100,0,0,100,0.00,0.00,29,18,40,0.00
2014-4-19,79,64,53,-100,-100,-100,0,0,100,0.00,0.00,25,14,29,0.00
2014-4-20,74,61,54,-100,-100,-100,0,0,100,0.00,0.00,25,9,30,0.64
2014-4-21,71,61,51,-100,-100,-100,0,0,100,0.00,0.00,23,10,28,0.54
2014-4-22,76,60,44,-100,-100,-100,0,0,100,0.00,0.00,31,17,39,0.00
2014-4-23,85,65,50,-100,-100,-100,0,0,100,0.00,0.00,31,21,38,8.58
2014-4-24,68,58,50,-100,-100,-100,0,0,100,0.00,0.00,24,14,27,13.74
2014-4-25,75,61,45,-100,-100,-100,0,0,100,0.00,0.00,19,11,22,0.00
2014-4-26,89,68,49,-100,-100,-100,0,0,100,0.00,0.00,28,15,34,0.00
2014-4-27,71,60,45,-100,-100,-100,0,0,100,0.00,0.00,33,18,41,0.52
2014-4-28,47,44,40,-100,-100,-100,0,0,100,0.00,0.00,45,30,57,0.85
2014-4-29,43,39,36,-100,-100,-100,0,0,100,0.00,0.00,35,26,48,0.59
2014-4-30,53,43,35,-100,-100,-100,0,0,100,0.00,0.00,29,20,35,0.00
2014-5-1,60,48,37,-100,-100,-100,0,0,100,0.00,0.00,26,14,32,0.00
2014-5-2,75,56,36,-100,-100,-100,0,0,100,0.00,0.00,17,9,20,0.00
2014-5-3,79,61,45,-100,-100,-100,0,0,100,0.00,0.00,18,8,21,0.00
2014-5-4,76,60,43,-100,-100,-100,0,0,100,0.00,0.00,15,7,17,0.00
2014-5-5,72,57,46,-100,-100,-100,0,0,100,0.00,0.00,16,9,20,0.00
2014-5-6,77,71,62,-100,-100,-100,0,0,100,0.00,0.00,11,6,14,0.00
2014-5-7,85,67,48,-100,-100,-100,0,0,100,0.00,0.00,20,8,23,0.00
2014-5-8,71,57,44,-100,-100,-100,0,0,100,0.00,0.00,29,19,38,0.00
2014-5-9,74,54,34,-100,-100,-100,0,0,100,0.00,0.00,19,10,27,0.00
2014-5-10,80,66,50,-100,-100,-100,0,0,100,0.00,0.00,21,11,25,0.00
2014-5-11,71,56,47,-100,-100,-100,0,0,100,0.00,0.00,28,17,35,0.00
2014-5-12,48,43,40,-100,-100,-100,0,0,100,0.00,0.00,29,19,36,2.57
2014-5-13,60,48,34,-100,-100,-100,0,0,100,0.00,0.00,22,12,26,0.96
2014-5-14,65,51,36,-100,-100,-100,0,0,100,0.00,0.00,25,9,29,0.00
2014-5-15,64,50,40,-100,-100,-100,0,0,100,0.00,0.00,19,8,24,0.16
2014-5-16,64,49,39,-100,-100,-100,0,0,100,0.00,0.00,14,7,19,0.06
2014-5-17,56,47,35,-100,-100,-100,0,0,100,0.00,0.00,15,8,21,0.10
2014-5-18,76,60,43,-100,-100,-100,0,0,100,0.00,0.00,27,17,33,0.06
2014-5-19,90,74,60,-100,-100,-100,0,0,100,0.00,0.00,26,14,33,0.00
2014-5-20,82,71,59,-100,-100,-100,0,0,100,0.00,0.00,28,12,27,0.00
2014-5-21,67,62,56,-100,-100,-100,0,0,100,0.00,0.00,13,10,19,0.00
2014-5-22,76,70,64,-100,-100,-100,0,0,100,0.00,0.00,14,12,17,0.00
2014-5-23,68,63,60,-100,-100,-100,0,0,100,0.00,0.00,14,9,18,0.00
2014-5-24,74,65,58,-100,-100,-100,0,0,100,0.00,0.00,16,8,19,0.00
2014-5-25,79,67,58,-100,-100,-100,0,0,100,0.00,0.00,14,6,16,0.24
2014-5-26,82,69,56,-100,-100,-100,0,0,100,0.00,0.00,19,8,23,0.12
2014-5-27,86,72,56,-100,-100,-100,0,0,100,0.00,0.00,12,6,13,0.00
2014-5-28,91,76,58,-100,-100,-100,0,0,100,0.00,0.00,12,5,16,0.00
2014-5-29,90,76,61,-100,-100,-100,0,0,100,0.00,0.00,16,8,19,0.00
2014-5-30,87,75,62,-100,-100,-100,0,0,100,0.00,0.00,18,12,22,0.00
2014-5-31,86,74,63,-100,-100,-100,0,0,100,0.00,0.00,20,12,24,0.00
2014-6-1,93,73,63,-100,-100,-100,0,0,100,0.00,0.00,28,14,33,0.52
2014-6-2,85,70,57,-100,-100,-100,0,0,100,0.00,0.00,14,7,16,0.24
2014-6-3,95,80,65,-100,-100,-100,0,0,100,0.00,0.00,32,19,39,0.00
2014-6-4,82,67,61,-100,-100,-100,0,0,100,0.00,0.00,17,0,21,0.00
2014-6-5,84,71,63,-100,-100,-100,0,0,100,0.00,0.00,0,0,5,0.13
2014-6-6,84,72,58,-100,-100,-100,0,0,100,0.00,0.00,0,0,0,1.34
2014-6-7,70,62,52,-100,-100,-100,0,0,100,0.00,0.00,0,0,0,2.65
2014-6-8,70,62,54,-100,-100,-100,0,0,100,0.00,0.00,0,0,0,0.42
2014-6-9,59,57,54,-100,-100,-100,0,0,100,0.00,0.00,0,0,0,15.05
2014-6-10,76,61,49,-100,-100,-100,0,0,100,0.00,0.00,0,0,0,4.08
2014-6-11,91,70,59,-100,-100,-100,0,0,100,0.00,0.00,0,0,0,0.02
2014-6-12,72,63,52,-100,-100,-100,0,0,100,0.00,0.00,0,0,0,0.12
2014-6-13,80,67,51,-100,-100,-100,0,0,100,0.00,0.00,0,0,1,0.00
2014-6-14,92,76,55,-100,-100,-100,0,0,100,0.00,0.00,1,0,8,1.04
2014-6-15,80,66,53,-100,-100,-100,0,0,100,0.00,0.00,0,0,0,3.12
2014-6-16,96,79,64,-100,-100,-100,0,0,100,0.00,0.00,1,0,8,0.00
2014-6-17,96,84,72,-100,-100,-100,0,0,100,0.00,0.00,0,0,2,0.00
2014-6-18,91,80,65,-100,-100,-100,0,0,100,0.00,0.00,1,0,8,0.12
2014-6-19,83,71,59,-100,-100,-100,0,0,100,0.00,0.00,0,0,0,0.18
2014-6-20,93,79,63,-100,-100,-100,0,0,100,0.00,0.00,0,0,0,0.00
2014-6-21,89,77,63,-100,-100,-100,0,0,100,0.00,0.00,0,0,4,0.04
2014-6-22,84,74,64,-100,-100,-100,0,0,100,0.00,0.00,0,0,0,0.66
2014-6-23,80,70,61,-100,-100,-100,0,0,100,0.00,0.00,0,0,0,0.00
2014-6-24,73,68,61,-100,-100,-100,0,0,100,0.00,0.00,0,0,0,0.87
2014-6-25,84,71,58,-100,-100,-100,0,0,100,0.00,0.00,0,0,0,0.00
2014-6-26,72,64,60,-100,-100,-100,0,0,100,0.00,0.00,0,0,0,4.63
2014-6-30,88,80,67,-100,-100,-100,0,0,100,0.00,0.00,0,0,0,0.00
2014-7-1,81,71,60,-100,-100,-100,0,0,100,0.00,0.00,0,0,0,0.00
2014-7-2,78,67,56,-100,-100,-100,0,0,100,0.00,0.00,0,0,0,0.00
2014-7-3,81,69,56,-100,-100,-100,0,0,100,0.00,0.00,0,0,0,0.00
2014-7-4,88,76,63,-100,-100,-100,0,0,100,0.00,0.00,0,0,8,0.00
2014-7-5,94,82,67,-100,-100,-100,0,0,100,0.00,0.00,0,0,0,0.00
2014-7-6,100,84,67,-100,-100,-100,0,0,100,0.00,0.00,0,0,0,0.00
2014-7-7,96,79,64,-100,-100,-100,0,0,100,0.00,0.00,0,0,0,0.00
2014-7-8,84,74,64,-100,-100,-100,0,0,100,0.00,0.00,0,0,0,0.26
2014-7-9,89,75,59,-100,-100,-100,0,0,100,0.00,0.00,0,0,2,0.00
2014-7-10,89,75,63,-100,0,200,0,0,100,0.00,0.00,0,0,0,0.37
2014-7-11,99,82,67,-100,0,200,0,0,100,0.00,0.00,23,6,26,0.00
2014-7-12,94,80,65,-100,0,200,0,0,100,0.00,0.00,19,1,24,0.00
2014-7-13,91,77,66,-100,0,200,0,0,100,0.00,0.00,0,0,0,0.00
2014-7-14,83,71,59,-100,0,200,0,0,100,0.00,0.00,0,0,0,0.00
2014-7-15,77,65,49,-100,0,200,0,0,100,0.00,0.00,0,0,0,0.00
2014-7-16,65,60,57,-100,0,200,0,0,100,0.00,0.00,0,0,0,8.67
2014-7-17,66,60,56,-100,0,200,0,0,100,0.00,0.00,0,0,0,5.61
2014-7-18,77,66,59,-100,0,200,0,0,100,0.00,0.00,0,0,5,0.18
2014-7-19,79,69,63,-100,0,200,0,0,100,0.00,0.00,0,0,0,0.00
2014-7-20,100,82,66,-100,0,200,0,0,100,0.00,0.00,1,0,5,0.00
2014-7-21,101,86,74,-100,0,200,0,0,100,0.00,0.00,1,0,6,0.00
2014-7-22,97,82,66,-100,0,200,0,0,100,0.00,0.00,1,0,5,0.00
2014-7-23,85,74,68,-100,0,200,0,0,100,0.00,0.00,0,0,0,0.36
2014-7-24,99,81,64,-100,0,200,0,0,100,0.00,0.00,0,0,3,0.18
2014-7-25,97,86,78,-100,0,200,0,0,100,0.00,0.00,1,0,6,0.00
2014-7-26,100,83,68,-100,0,200,0,0,100,0.00,0.00,0,0,0,0.34
2014-7-27,89,76,64,-100,0,200,0,0,100,0.00,0.00,0,0,0,0.00
2014-7-28,88,73,59,-100,0,200,0,0,100,0.00,0.00,0,0,4,0.00
2014-7-29,86,73,58,-100,0,200,0,0,100,0.00,0.00,0,0,5,0.00
2014-7-30,80,70,63,-100,0,200,0,0,100,0.00,0.00,0,0,0,0.00
2014-7-31,89,74,57,-100,0,200,0,0,100,0.00,0.00,1,0,7,0.00
2014-8-1,91,76,59,-100,0,200,0,0,100,0.00,0.00,0,0,0,0.00
2014-8-2,93,74,57,-100,0,200,0,0,100,0.00,0.00,0,0,0,1.97
2014-8-3,94,79,63,-100,0,200,0,0,100,0.00,0.00,0,0,0,1.98
2014-8-4,97,82,67,-100,0,200,0,0,100,0.00,0.00,0,0,0,0.00
2014-8-5,97,82,69,-100,0,200,0,0,100,0.00,0.00,1,0,7,0.00
2014-8-6,93,78,68,-100,0,200,0,0,100,0.00,0.00,0,0,0,0.46
2014-8-7,85,72,62,-100,0,200,0,0,100,0.00,0.00,0,0,0,2.51
2014-8-8,86,74,64,-100,0,200,0,0,100,0.00,0.00,0,0,0,1.32
2014-8-9,91,76,63,-100,0,200,0,0,100,0.00,0.00,0,0,0,0.03
2014-8-10,84,72,60,-100,0,200,0,0,100,0.00,0.00,0,0,0,0.06
2014-8-11,84,72,59,-100,0,200,0,0,100,0.00,0.00,0,0,0,0.00
2014-8-12,85,72,59,-100,0,200,0,0,100,0.00,0.00,0,0,0,0.00
2014-8-13,90,72,57,-100,0,200,0,0,100,0.00,0.00,0,0,0,0.00
2014-8-14,94,86,77,-100,0,200,0,0,100,0.00,0.00,0,0,0,0.00
2014-8-15,90,78,67,-100,0,200,0,0,100,0.00,0.00,0,0,0,2.52
2014-8-16,92,79,66,-100,0,200,0,0,100,0.00,0.00,0,0,0,0.06
2014-8-17,97,78,63,-100,0,200,0,0,100,0.00,0.00,0,0,4,1.77
2014-8-18,89,74,61,-100,0,200,0,0,100,0.00,0.00,2,0,14,2.44
2014-8-19,95,77,62,-100,0,200,0,0,100,0.00,0.00,0,0,0,1.20
2014-8-20,97,83,71,-100,0,200,0,0,100,0.00,0.00,0,0,0,0.00
2014-8-21,95,83,71,-100,0,200,0,0,100,0.00,0.00,0,0,3,0.00
2014-8-22,91,77,65,-100,0,200,0,0,100,0.00,0.00,0,0,0,0.00
2014-9-26,82,80,80,-100,0,200,0,0,100,0.00,0.00,0,0,0,0.00